Portada
METAR-TAF:

METAR-TAF

Aeroports :

Cúcuta, Colòmbia

latitud: 07-56N, longitud: 072-31W, altitud: 250 m

Observació

L'informe es va fer fa 48 minuts, a les 05:00 UTC
Vent 11 kt del Sud
Temperatura 29°C
Humitat 52%
Pressió 1016 hPa
Visibilitat 10 km o més
Escasses núvols a una alçada de 2300 ft

METAR: SKCC 220500Z 19011KT 9999 FEW023 29/18 A2999

Hora: 00:48 (05:48 UTC)

Pronòstic

L'informe es va fer fa 1 hora i 18 minuts, a les 04:30 UTC
Pronòstic vàlid del 22 a les 06 UTC al 23 a les 06 UTC
Vent 10 kt del Sud
Visibilitat 10 km o més
Escasses núvols a una alçada de 2000 ft
Núvols disperses a una alçada de 9000 ft
Evolucionant progressivament
l' 22 a les 16 UTC al 22 a les 18 UTC
Vent 24 kt del Sud

TAF: SKCC 220430Z 2206/2306 17010KT 9999 FEW020 SCT090 BECMG 2216/2218 18024KT TX36/2218Z TN26/2211Z

Observacions i pronòstics meteorològics de més de 4000 aeroports (METAR i TAF).

Les estacions disponibles són els punts grocs i vermells al mapa.

Posi el ratolí al punt desitjat per veure el nom de l'estació.

Feu clic per veure les observacions i els pronòstics meteorològics.

Per canviar el mapa: feu clic els botons verds amb una creu de color negre per apropar; al botó verd amb un guió per allunyar la imatge; o en les fletxes verdes per a mapes adjacents.


METAR-TAF: